Time;durP1;ratioP1;P1;durP2;ratioP2;P2;SDS_P1;SDS_P2;PMS_P1;PMS_P2;Temp;Humidity;BMP_temperature;BMP_pressure;BME280_temperature;BME280_humidity;BME280_pressure;Samples;Min_cycle;Max_cycle;Signal;HPM_P1;HPM_P2
2023/12/31 00:00:59;;;;;;;25.45;9.15;;;;;;;;;;5028292;28;20376;-71
2023/12/31 00:03:45;;;;;;;24.10;10.40;;;;;;;;;;5026956;28;20022;-71
2023/12/31 00:06:31;;;;;;;35.20;9.20;;;;;;;;;;5023921;28;20091;-70
2023/12/31 00:09:16;;;;;;;30.25;8.55;;;;;;;;;;5021376;28;20060;-71
2023/12/31 00:12:02;;;;;;;27.60;8.48;;;;;;;;;;5020672;28;20030;-71
2023/12/31 00:14:48;;;;;;;29.88;9.30;;;;;;;;;;5023703;28;20018;-71
2023/12/31 00:17:33;;;;;;;24.90;8.55;;;;;;;;;;5025326;28;20470;-70
2023/12/31 00:20:19;;;;;;;25.35;9.68;;;;;;;;;;5026013;28;20461;-70
2023/12/31 00:23:05;;;;;;;27.48;9.43;;;;;;;;;;5024262;28;20486;-70
2023/12/31 00:25:50;;;;;;;27.42;8.57;;;;;;;;;;5025112;28;20034;-70
2023/12/31 00:28:36;;;;;;;20.98;8.32;;;;;;;;;;5029448;28;20021;-69
2023/12/31 00:31:22;;;;;;;23.25;8.23;;;;;;;;;;5021524;28;20483;-69
2023/12/31 00:34:08;;;;;;;19.23;7.55;;;;;;;;;;5029698;28;20026;-69
2023/12/31 00:36:54;;;;;;;21.23;7.88;;;;;;;;;;5022790;28;20022;-67
2023/12/31 00:39:39;;;;;;;26.77;7.82;;;;;;;;;;5036878;28;20041;-68
2023/12/31 00:42:25;;;;;;;22.60;7.97;;;;;;;;;;5032671;28;20063;-68
2023/12/31 00:45:11;;;;;;;24.10;8.60;;;;;;;;;;5033640;28;20060;-68
2023/12/31 00:47:56;;;;;;;25.95;7.97;;;;;;;;;;5032307;28;20159;-68
2023/12/31 00:50:42;;;;;;;21.63;8.35;;;;;;;;;;5033513;28;20022;-68
2023/12/31 00:53:27;;;;;;;28.52;8.57;;;;;;;;;;5033410;28;20044;-68
2023/12/31 00:56:13;;;;;;;21.33;9.23;;;;;;;;;;5033486;28;20483;-69
2023/12/31 00:58:59;;;;;;;28.15;8.23;;;;;;;;;;5033509;28;20075;-69
2023/12/31 01:01:44;;;;;;;16.48;8.02;;;;;;;;;;5034122;28;20025;-68
2023/12/31 01:04:30;;;;;;;18.20;8.02;;;;;;;;;;5033356;28;20048;-68
2023/12/31 01:07:17;;;;;;;27.45;7.78;;;;;;;;;;5033811;28;20022;-68
2023/12/31 01:10:03;;;;;;;25.88;8.00;;;;;;;;;;5032975;28;20025;-68
2023/12/31 01:12:48;;;;;;;28.70;8.90;;;;;;;;;;5018036;28;20056;-68
2023/12/31 01:15:34;;;;;;;24.88;8.18;;;;;;;;;;5033109;28;20040;-69
2023/12/31 01:18:20;;;;;;;21.85;8.23;;;;;;;;;;5032946;28;20018;-68
2023/12/31 01:21:05;;;;;;;23.40;8.95;;;;;;;;;;5033285;28;20402;-69
2023/12/31 01:23:52;;;;;;;25.10;8.38;;;;;;;;;;5033161;28;20025;-68
2023/12/31 01:26:37;;;;;;;24.10;8.57;;;;;;;;;;5032498;28;20025;-69
2023/12/31 01:29:23;;;;;;;21.10;8.10;;;;;;;;;;5032484;28;20025;-69
2023/12/31 01:32:09;;;;;;;16.85;7.63;;;;;;;;;;5032738;28;20043;-69
2023/12/31 01:34:57;;;;;;;22.05;7.70;;;;;;;;;;5032315;28;20029;-68
2023/12/31 01:37:42;;;;;;;23.25;8.15;;;;;;;;;;5032897;28;20032;-69
2023/12/31 01:40:28;;;;;;;16.40;8.13;;;;;;;;;;5032201;28;20383;-69
2023/12/31 01:43:17;;;;;;;28.27;9.38;;;;;;;;;;5032564;28;20044;-68
2023/12/31 01:46:04;;;;;;;26.15;9.00;;;;;;;;;;5032853;28;20041;-69
2023/12/31 01:48:49;;;;;;;29.27;9.85;;;;;;;;;;5031558;28;20511;-69
2023/12/31 01:51:35;;;;;;;21.83;8.60;;;;;;;;;;5031610;28;20033;-69
2023/12/31 01:54:21;;;;;;;25.33;8.35;;;;;;;;;;5032851;28;20482;-68
2023/12/31 01:57:06;;;;;;;28.13;8.77;;;;;;;;;;5032486;28;20048;-69
2023/12/31 01:59:53;;;;;;;23.90;8.00;;;;;;;;;;5031722;28;20028;-68
2023/12/31 02:02:40;;;;;;;32.38;9.75;;;;;;;;;;5032214;28;20057;-68
2023/12/31 02:05:26;;;;;;;22.98;8.77;;;;;;;;;;5032150;28;20070;-69
2023/12/31 02:08:11;;;;;;;24.65;10.18;;;;;;;;;;5032091;28;20022;-68
2023/12/31 02:10:57;;;;;;;25.80;8.80;;;;;;;;;;5030325;28;20048;-68
2023/12/31 02:13:43;;;;;;;25.27;8.93;;;;;;;;;;5023804;28;20021;-68
2023/12/31 02:16:28;;;;;;;28.48;8.68;;;;;;;;;;5036006;28;20490;-67
2023/12/31 02:19:14;;;;;;;22.80;8.00;;;;;;;;;;5030544;28;20025;-68
2023/12/31 02:22:01;;;;;;;31.88;9.52;;;;;;;;;;5031829;28;20021;-68
2023/12/31 02:24:48;;;;;;;21.80;8.07;;;;;;;;;;5031999;28;20387;-68
2023/12/31 02:27:34;;;;;;;30.60;8.80;;;;;;;;;;5032075;28;20033;-68
2023/12/31 02:30:20;;;;;;;25.15;7.78;;;;;;;;;;5032270;28;20057;-69
2023/12/31 02:33:05;;;;;;;18.92;7.50;;;;;;;;;;5030805;28;20036;-68
2023/12/31 02:35:52;;;;;;;18.33;8.23;;;;;;;;;;5031630;28;20125;-68
2023/12/31 02:38:37;;;;;;;18.02;7.35;;;;;;;;;;5031820;28;20021;-68
2023/12/31 02:41:24;;;;;;;22.05;8.40;;;;;;;;;;5016214;28;20410;-68
2023/12/31 02:44:09;;;;;;;22.05;7.57;;;;;;;;;;5011217;28;20025;-68
2023/12/31 02:46:56;;;;;;;21.25;6.57;;;;;;;;;;5027021;28;20036;-68
2023/12/31 02:49:42;;;;;;;25.83;7.45;;;;;;;;;;5031318;28;20029;-68
2023/12/31 02:52:27;;;;;;;15.73;7.28;;;;;;;;;;5030412;28;20036;-68
2023/12/31 02:55:13;;;;;;;17.98;6.82;;;;;;;;;;5030900;28;20505;-69
2023/12/31 02:57:59;;;;;;;15.40;6.03;;;;;;;;;;5031726;28;20026;-68
2023/12/31 03:00:44;;;;;;;19.52;6.90;;;;;;;;;;5028821;28;20022;-68
2023/12/31 03:03:30;;;;;;;18.13;7.07;;;;;;;;;;5033987;28;20025;-68
2023/12/31 03:06:16;;;;;;;18.50;6.88;;;;;;;;;;5035579;28;20064;-68
2023/12/31 03:09:02;;;;;;;18.02;7.63;;;;;;;;;;5019082;28;20042;-68
2023/12/31 03:11:48;;;;;;;16.85;7.05;;;;;;;;;;5024171;28;20029;-68
2023/12/31 03:14:33;;;;;;;18.98;6.13;;;;;;;;;;5021390;28;20086;-68
2023/12/31 03:17:19;;;;;;;18.75;6.47;;;;;;;;;;5015631;28;20025;-68
2023/12/31 03:20:06;;;;;;;13.25;5.60;;;;;;;;;;5015858;28;20021;-68
2023/12/31 03:22:52;;;;;;;16.40;6.80;;;;;;;;;;5000825;28;20112;-68
2023/12/31 03:25:38;;;;;;;18.02;6.00;;;;;;;;;;5034224;28;20084;-68
2023/12/31 03:28:23;;;;;;;15.82;5.75;;;;;;;;;;5034440;28;20025;-68
2023/12/31 03:31:09;;;;;;;18.83;6.70;;;;;;;;;;5026770;28;20114;-69
2023/12/31 03:33:55;;;;;;;23.15;6.88;;;;;;;;;;5015891;28;20507;-68
2023/12/31 03:36:41;;;;;;;15.40;6.53;;;;;;;;;;5021285;28;20106;-68
2023/12/31 03:39:26;;;;;;;17.30;5.80;;;;;;;;;;5030761;28;20023;-68
2023/12/31 03:42:12;;;;;;;12.70;5.25;;;;;;;;;;5022477;28;20026;-67
2023/12/31 03:44:57;;;;;;;16.85;6.35;;;;;;;;;;5016915;28;20041;-68
2023/12/31 03:47:43;;;;;;;20.13;5.28;;;;;;;;;;5014120;28;20160;-68
2023/12/31 03:50:29;;;;;;;22.40;5.90;;;;;;;;;;5021277;28;20561;-68
2023/12/31 03:53:14;;;;;;;12.93;5.10;;;;;;;;;;5014285;28;20026;-68
2023/12/31 03:56:00;;;;;;;12.73;4.95;;;;;;;;;;5024002;28;20026;-68
2023/12/31 03:58:45;;;;;;;11.57;5.47;;;;;;;;;;5033539;28;20021;-68
2023/12/31 04:01:31;;;;;;;13.50;7.20;;;;;;;;;;5030030;28;20402;-68
2023/12/31 04:04:17;;;;;;;16.00;4.75;;;;;;;;;;4999728;28;20050;-68
2023/12/31 04:07:04;;;;;;;10.38;5.25;;;;;;;;;;5018871;28;20061;-67
2023/12/31 04:09:50;;;;;;;11.05;5.18;;;;;;;;;;5035191;28;20056;-68
2023/12/31 04:12:35;;;;;;;11.02;4.95;;;;;;;;;;5022669;28;20108;-68
2023/12/31 04:15:21;;;;;;;10.70;5.15;;;;;;;;;;5019772;28;20111;-69
2023/12/31 04:18:07;;;;;;;14.07;4.90;;;;;;;;;;4998702;28;20105;-68
2023/12/31 04:20:52;;;;;;;10.55;4.43;;;;;;;;;;5020863;28;20527;-68
2023/12/31 04:23:38;;;;;;;8.80;4.38;;;;;;;;;;5014087;28;20034;-68
2023/12/31 04:26:23;;;;;;;14.07;4.70;;;;;;;;;;5016601;28;20142;-68
2023/12/31 04:29:10;;;;;;;9.23;4.22;;;;;;;;;;5013508;28;20034;-68
2023/12/31 04:31:56;;;;;;;10.90;4.90;;;;;;;;;;5001538;28;20029;-68
2023/12/31 04:34:41;;;;;;;13.43;5.50;;;;;;;;;;5013189;28;20450;-68
2023/12/31 04:37:27;;;;;;;8.68;4.25;;;;;;;;;;5019642;28;20017;-67
2023/12/31 04:40:13;;;;;;;9.23;4.22;;;;;;;;;;5025313;28;20505;-68
2023/12/31 04:42:58;;;;;;;7.75;4.40;;;;;;;;;;5033384;28;20029;-68
2023/12/31 04:45:44;;;;;;;12.63;4.50;;;;;;;;;;5032531;28;20542;-68
2023/12/31 04:48:30;;;;;;;6.80;3.97;;;;;;;;;;5028444;28;20112;-68
2023/12/31 04:51:29;;;;;;;10.20;3.85;;;;;;;;;;5033105;28;20032;-68
2023/12/31 04:54:15;;;;;;;8.93;3.60;;;;;;;;;;5019186;28;20021;-68
2023/12/31 04:57:00;;;;;;;19.70;4.43;;;;;;;;;;5029277;28;20030;-68
2023/12/31 04:59:46;;;;;;;7.40;3.75;;;;;;;;;;5013820;28;20072;-68
2023/12/31 05:02:32;;;;;;;10.48;3.70;;;;;;;;;;5016624;28;20029;-68
2023/12/31 05:05:18;;;;;;;6.88;4.25;;;;;;;;;;4997769;28;20531;-68
2023/12/31 05:08:04;;;;;;;10.40;4.97;;;;;;;;;;5024603;28;20376;-68
2023/12/31 05:10:49;;;;;;;7.78;4.60;;;;;;;;;;5020663;28;20403;-67
2023/12/31 05:13:35;;;;;;;10.63;3.75;;;;;;;;;;5013923;28;20049;-68
2023/12/31 05:16:21;;;;;;;10.10;4.22;;;;;;;;;;5031499;28;20504;-68
2023/12/31 05:19:06;;;;;;;9.15;4.13;;;;;;;;;;5028444;28;20021;-68
2023/12/31 05:21:52;;;;;;;10.82;3.33;;;;;;;;;;5032392;28;20056;-68
2023/12/31 05:24:38;;;;;;;10.27;4.13;;;;;;;;;;5031406;28;20013;-68
2023/12/31 05:27:23;;;;;;;7.18;3.60;;;;;;;;;;5032252;28;20033;-68
2023/12/31 05:30:10;;;;;;;13.52;4.38;;;;;;;;;;5029125;28;20087;-68
2023/12/31 05:32:56;;;;;;;12.05;3.65;;;;;;;;;;4999504;28;20124;-68
2023/12/31 05:35:41;;;;;;;11.40;4.05;;;;;;;;;;5013811;28;20029;-68
2023/12/31 05:38:27;;;;;;;7.75;3.90;;;;;;;;;;5015396;28;20491;-67
2023/12/31 05:41:13;;;;;;;12.05;4.75;;;;;;;;;;5013588;28;20411;-68
2023/12/31 05:43:58;;;;;;;10.02;4.13;;;;;;;;;;5029663;28;20053;-68
2023/12/31 05:46:44;;;;;;;11.25;4.90;;;;;;;;;;5028224;28;20028;-68
2023/12/31 05:49:35;;;;;;;11.68;4.43;;;;;;;;;;5011674;28;20087;-68
2023/12/31 05:52:21;;;;;;;9.57;4.55;;;;;;;;;;5013224;28;20033;-68
2023/12/31 05:55:07;;;;;;;12.93;5.10;;;;;;;;;;5011475;28;20033;-68
2023/12/31 05:57:52;;;;;;;9.35;4.20;;;;;;;;;;5011927;28;20096;-67
2023/12/31 06:00:38;;;;;;;11.57;4.68;;;;;;;;;;5027567;28;20029;-67
2023/12/31 06:03:24;;;;;;;8.93;4.35;;;;;;;;;;5032023;28;20517;-68
2023/12/31 06:06:09;;;;;;;12.88;4.20;;;;;;;;;;5031514;28;20033;-68
2023/12/31 06:08:55;;;;;;;10.10;4.60;;;;;;;;;;5031651;28;20033;-69
2023/12/31 06:11:41;;;;;;;12.98;4.55;;;;;;;;;;5027078;28;20495;-68
2023/12/31 06:14:26;;;;;;;7.88;4.43;;;;;;;;;;5012109;28;20053;-68
2023/12/31 06:17:12;;;;;;;12.18;4.47;;;;;;;;;;5017497;28;20049;-68
2023/12/31 06:19:57;;;;;;;6.85;4.20;;;;;;;;;;5031714;28;20105;-68
2023/12/31 06:22:43;;;;;;;11.13;4.72;;;;;;;;;;5029072;28;20026;-67
2023/12/31 06:25:29;;;;;;;9.20;4.03;;;;;;;;;;5029637;28;20021;-68
2023/12/31 06:28:14;;;;;;;7.95;4.07;;;;;;;;;;5022184;28;20124;-68
2023/12/31 06:31:00;;;;;;;8.38;3.92;;;;;;;;;;5014896;28;20059;-68
2023/12/31 06:33:45;;;;;;;6.97;4.35;;;;;;;;;;5030039;28;20513;-68
2023/12/31 06:36:31;;;;;;;14.95;4.63;;;;;;;;;;5011882;28;20033;-68
2023/12/31 06:39:17;;;;;;;10.70;4.43;;;;;;;;;;5020065;28;20014;-67
2023/12/31 06:42:02;;;;;;;7.38;2.90;;;;;;;;;;5015729;28;20491;-68
2023/12/31 06:44:48;;;;;;;7.88;3.78;;;;;;;;;;5015466;28;20088;-68
2023/12/31 06:47:34;;;;;;;8.48;4.50;;;;;;;;;;5015911;28;20556;-68
2023/12/31 06:50:19;;;;;;;11.65;4.45;;;;;;;;;;5016081;28;20030;-68
2023/12/31 06:53:05;;;;;;;13.40;5.00;;;;;;;;;;5001606;28;20025;-68
2023/12/31 06:55:51;;;;;;;8.15;3.78;;;;;;;;;;5002166;28;20030;-68
2023/12/31 06:58:37;;;;;;;9.48;4.35;;;;;;;;;;5016242;28;20022;-68
2023/12/31 07:01:23;;;;;;;8.27;4.85;;;;;;;;;;5001556;28;20080;-68
2023/12/31 07:04:08;;;;;;;6.82;3.97;;;;;;;;;;5015267;28;20029;-68
2023/12/31 07:06:54;;;;;;;11.02;4.82;;;;;;;;;;5015788;28;20480;-68
2023/12/31 07:09:39;;;;;;;8.57;4.53;;;;;;;;;;5015741;28;20450;-68
2023/12/31 07:12:25;;;;;;;8.25;3.72;;;;;;;;;;5016241;28;20044;-68
2023/12/31 07:15:11;;;;;;;12.35;4.63;;;;;;;;;;5015743;28;20084;-68
2023/12/31 07:17:58;;;;;;;7.18;3.42;;;;;;;;;;5014936;28;20056;-68
2023/12/31 07:20:43;;;;;;;12.95;4.28;;;;;;;;;;5014758;28;20072;-68
2023/12/31 07:23:29;;;;;;;8.90;4.25;;;;;;;;;;5015273;28;20038;-69
2023/12/31 07:26:27;;;;;;;12.13;4.22;;;;;;;;;;5015582;28;20080;-68
2023/12/31 07:29:13;;;;;;;10.52;4.63;;;;;;;;;;5001277;28;20041;-68
2023/12/31 07:31:59;;;;;;;13.48;4.90;;;;;;;;;;5015880;28;20392;-68
2023/12/31 07:34:44;;;;;;;11.00;4.88;;;;;;;;;;5015345;28;20089;-68
2023/12/31 07:37:30;;;;;;;11.63;4.47;;;;;;;;;;5014893;28;20018;-68
2023/12/31 07:40:16;;;;;;;11.50;4.75;;;;;;;;;;5015441;28;20109;-69
2023/12/31 07:43:02;;;;;;;9.70;5.15;;;;;;;;;;5013996;28;20040;-68
2023/12/31 07:45:48;;;;;;;9.52;4.68;;;;;;;;;;5015085;28;20026;-68
2023/12/31 07:48:33;;;;;;;9.20;4.43;;;;;;;;;;5013515;28;20034;-68
2023/12/31 07:51:19;;;;;;;11.32;5.22;;;;;;;;;;5015460;28;20034;-68
2023/12/31 07:54:04;;;;;;;12.45;5.32;;;;;;;;;;5015055;28;20064;-69
2023/12/31 07:56:50;;;;;;;7.10;4.28;;;;;;;;;;5013532;28;20026;-68
2023/12/31 07:59:37;;;;;;;12.80;4.75;;;;;;;;;;5014911;28;20058;-68
2023/12/31 08:02:23;;;;;;;11.93;6.30;;;;;;;;;;5015730;28;20080;-68
2023/12/31 08:05:09;;;;;;;12.55;5.03;;;;;;;;;;5015473;28;20057;-69
2023/12/31 08:07:54;;;;;;;9.63;4.70;;;;;;;;;;5015511;28;20054;-68
2023/12/31 08:10:44;;;;;;;9.60;5.45;;;;;;;;;;5022858;28;20490;-68
2023/12/31 08:13:30;;;;;;;8.38;4.85;;;;;;;;;;5033153;28;20030;-67
2023/12/31 08:16:16;;;;;;;13.40;5.00;;;;;;;;;;5050750;28;20030;-68
2023/12/31 08:19:03;;;;;;;13.13;5.00;;;;;;;;;;5040523;28;20053;-68
2023/12/31 08:21:49;;;;;;;11.32;4.53;;;;;;;;;;5035027;28;20048;-67
2023/12/31 08:24:35;;;;;;;11.68;5.07;;;;;;;;;;5034090;28;20033;-68
2023/12/31 08:27:20;;;;;;;7.32;3.67;;;;;;;;;;5035203;28;20046;-68
2023/12/31 08:30:07;;;;;;;8.13;4.35;;;;;;;;;;5033109;28;20021;-68
2023/12/31 08:32:52;;;;;;;5.97;3.90;;;;;;;;;;5033693;28;20064;-68
2023/12/31 08:35:38;;;;;;;11.88;4.47;;;;;;;;;;5033126;28;20029;-68
2023/12/31 08:38:24;;;;;;;8.57;3.78;;;;;;;;;;5034517;28;20482;-68
2023/12/31 08:41:09;;;;;;;5.95;3.42;;;;;;;;;;5034938;28;20021;-68
2023/12/31 08:43:55;;;;;;;6.25;3.78;;;;;;;;;;4999805;28;20033;-68
2023/12/31 08:46:41;;;;;;;9.30;3.90;;;;;;;;;;5013257;28;20061;-68
2023/12/31 08:49:29;;;;;;;9.90;4.40;;;;;;;;;;5013821;28;20046;-68
2023/12/31 08:52:14;;;;;;;9.63;3.75;;;;;;;;;;5013684;28;20085;-68
2023/12/31 08:55:00;;;;;;;6.75;3.95;;;;;;;;;;5013040;28;20034;-68
2023/12/31 08:57:47;;;;;;;10.23;3.95;;;;;;;;;;5013071;28;20080;-68
2023/12/31 09:00:32;;;;;;;6.97;3.30;;;;;;;;;;5032727;28;20025;-68
2023/12/31 09:03:18;;;;;;;7.25;3.55;;;;;;;;;;5032443;28;20057;-68
2023/12/31 09:06:04;;;;;;;6.28;3.53;;;;;;;;;;5032654;28;20021;-68
2023/12/31 09:08:49;;;;;;;8.85;3.85;;;;;;;;;;5033369;28;20025;-68
2023/12/31 09:11:35;;;;;;;8.68;3.70;;;;;;;;;;5032857;28;20108;-68
2023/12/31 09:14:21;;;;;;;8.98;4.50;;;;;;;;;;5032220;28;20411;-68
2023/12/31 09:17:06;;;;;;;7.93;4.05;;;;;;;;;;5032324;28;20272;-68
2023/12/31 09:19:56;;;;;;;5.85;3.88;;;;;;;;;;5031714;28;20025;-68
2023/12/31 09:22:41;;;;;;;9.70;4.18;;;;;;;;;;5032541;28;20037;-68
2023/12/31 09:25:27;;;;;;;10.93;3.90;;;;;;;;;;5032273;28;20021;-68
2023/12/31 09:28:12;;;;;;;9.68;4.00;;;;;;;;;;5032121;28;20487;-68
2023/12/31 09:30:58;;;;;;;12.90;4.72;;;;;;;;;;5031970;28;20048;-68
2023/12/31 09:33:44;;;;;;;10.48;4.60;;;;;;;;;;5032432;28;20045;-68
2023/12/31 09:36:29;;;;;;;13.75;5.10;;;;;;;;;;5012577;28;20121;-68
2023/12/31 09:39:16;;;;;;;14.07;5.07;;;;;;;;;;5012844;28;20029;-68
2023/12/31 09:42:11;;;;;;;8.02;3.38;;;;;;;;;;5030498;28;20108;-68
2023/12/31 09:44:57;;;;;;;11.50;3.88;;;;;;;;;;5018364;28;20032;-69
2023/12/31 09:47:44;;;;;;;6.22;3.40;;;;;;;;;;5017542;28;20507;-68
2023/12/31 09:50:32;;;;;;;8.07;4.22;;;;;;;;;;5032003;28;20493;-69
2023/12/31 09:53:19;;;;;;;13.60;3.58;;;;;;;;;;5033597;28;20104;-68
2023/12/31 09:56:05;;;;;;;12.30;4.25;;;;;;;;;;5019218;28;20029;-69
2023/12/31 09:58:51;;;;;;;8.23;4.80;;;;;;;;;;5031744;28;20447;-69
2023/12/31 10:01:38;;;;;;;7.07;3.58;;;;;;;;;;5031893;28;20040;-68
2023/12/31 10:04:23;;;;;;;5.75;3.63;;;;;;;;;;5030705;28;20025;-68
2023/12/31 10:07:12;;;;;;;6.93;4.00;;;;;;;;;;5032050;28;20032;-69
2023/12/31 10:09:58;;;;;;;13.35;3.85;;;;;;;;;;5031585;28;20490;-69
2023/12/31 10:12:43;;;;;;;11.88;3.95;;;;;;;;;;5016763;28;20029;-69
2023/12/31 10:15:29;;;;;;;9.60;3.60;;;;;;;;;;5016974;28;20025;-68
2023/12/31 10:18:15;;;;;;;7.53;3.05;;;;;;;;;;5031548;28;20104;-69
2023/12/31 10:21:00;;;;;;;13.30;3.67;;;;;;;;;;5031892;28;20104;-68
2023/12/31 10:23:46;;;;;;;9.77;4.30;;;;;;;;;;5030353;28;20079;-69
2023/12/31 10:26:33;;;;;;;9.23;3.83;;;;;;;;;;5032152;28;20029;-69
2023/12/31 10:29:20;;;;;;;6.30;3.05;;;;;;;;;;5030373;28;20030;-69
2023/12/31 10:32:06;;;;;;;10.43;3.00;;;;;;;;;;5031227;28;20112;-69
2023/12/31 10:35:05;;;;;;;9.70;3.65;;;;;;;;;;5032558;28;20091;-68
2023/12/31 10:38:06;;;;;;;6.32;3.35;;;;;;;;;;5019523;28;20017;-69
2023/12/31 10:40:53;;;;;;;5.13;3.03;;;;;;;;;;5030837;28;20029;-69
2023/12/31 10:43:39;;;;;;;6.32;2.85;;;;;;;;;;5036680;28;20072;-69
2023/12/31 10:46:27;;;;;;;6.82;3.15;;;;;;;;;;5028441;28;20088;-69
2023/12/31 10:49:13;;;;;;;8.80;4.00;;;;;;;;;;5031690;28;20497;-69
2023/12/31 10:52:02;;;;;;;9.18;2.88;;;;;;;;;;5032789;28;20072;-68
2023/12/31 10:54:51;;;;;;;5.80;3.28;;;;;;;;;;5013251;28;20053;-69
2023/12/31 10:57:36;;;;;;;4.57;2.72;;;;;;;;;;5011498;28;20033;-68
2023/12/31 11:00:22;;;;;;;7.10;3.47;;;;;;;;;;5012994;28;20084;-68
2023/12/31 11:03:13;;;;;;;6.60;3.88;;;;;;;;;;4999079;28;20499;-69
2023/12/31 11:06:00;;;;;;;10.27;3.30;;;;;;;;;;4998574;28;20032;-69
2023/12/31 11:08:49;;;;;;;5.57;3.33;;;;;;;;;;4997714;28;20021;-68
2023/12/31 11:11:35;;;;;;;7.35;3.13;;;;;;;;;;5025666;28;20037;-68
2023/12/31 11:14:29;;;;;;;4.97;2.67;;;;;;;;;;5030443;28;20033;-69
2023/12/31 11:17:42;;;;;;;5.13;3.00;;;;;;;;;;5030757;28;20037;-68
2023/12/31 11:20:39;;;;;;;8.73;3.03;;;;;;;;;;5030533;28;20025;-69
2023/12/31 11:23:51;;;;;;;5.00;3.03;;;;;;;;;;5032516;28;20060;-68
2023/12/31 11:26:38;;;;;;;4.18;2.80;;;;;;;;;;5026403;28;20030;-68
2023/12/31 11:29:23;;;;;;;7.20;2.83;;;;;;;;;;5034422;28;20037;-68
2023/12/31 11:32:09;;;;;;;9.07;3.35;;;;;;;;;;5034758;28;20021;-68
2023/12/31 11:34:55;;;;;;;5.57;2.67;;;;;;;;;;5034548;28;20021;-68
2023/12/31 11:37:40;;;;;;;4.70;2.63;;;;;;;;;;5035097;28;20080;-68
2023/12/31 11:40:26;;;;;;;4.15;2.72;;;;;;;;;;5034417;28;20021;-68
2023/12/31 11:43:13;;;;;;;9.52;3.00;;;;;;;;;;5045077;28;20021;-68
2023/12/31 11:45:59;;;;;;;4.68;3.00;;;;;;;;;;5039248;28;20059;-68
2023/12/31 11:48:46;;;;;;;6.70;3.00;;;;;;;;;;5053608;28;20031;-68
2023/12/31 11:51:57;;;;;;;5.80;2.75;;;;;;;;;;5034667;28;20109;-68
2023/12/31 11:54:44;;;;;;;8.00;3.53;;;;;;;;;;5035984;28;20024;-68
2023/12/31 11:57:30;;;;;;;7.13;3.13;;;;;;;;;;5035969;28;20017;-68
2023/12/31 12:00:16;;;;;;;8.45;3.15;;;;;;;;;;5034045;28;20030;-68
2023/12/31 12:03:02;;;;;;;4.72;2.70;;;;;;;;;;5035287;28;20087;-68
2023/12/31 12:05:50;;;;;;;7.85;3.10;;;;;;;;;;5039021;28;20036;-69
2023/12/31 12:08:35;;;;;;;4.60;3.20;;;;;;;;;;5020027;28;20380;-68
2023/12/31 12:11:21;;;;;;;7.20;2.47;;;;;;;;;;5033500;28;20080;-68
2023/12/31 12:14:07;;;;;;;8.30;2.85;;;;;;;;;;5034337;28;20108;-68
2023/12/31 12:16:54;;;;;;;7.82;3.08;;;;;;;;;;5034270;28;20055;-69
2023/12/31 12:19:39;;;;;;;5.97;2.83;;;;;;;;;;5035352;28;20021;-68
2023/12/31 12:22:25;;;;;;;7.20;3.17;;;;;;;;;;5019068;28;20018;-68
2023/12/31 12:25:11;;;;;;;3.75;2.75;;;;;;;;;;5033717;28;20044;-69
2023/12/31 12:27:56;;;;;;;4.95;2.58;;;;;;;;;;5045604;28;20560;-68
2023/12/31 12:30:42;;;;;;;3.75;2.78;;;;;;;;;;5054396;28;20025;-68
2023/12/31 12:33:28;;;;;;;4.63;2.53;;;;;;;;;;5052213;28;20532;-69
2023/12/31 12:36:14;;;;;;;9.82;3.38;;;;;;;;;;5052915;28;20374;-68
2023/12/31 12:39:02;;;;;;;6.00;2.72;;;;;;;;;;5037510;28;20075;-68
2023/12/31 12:41:49;;;;;;;4.90;2.75;;;;;;;;;;5052699;28;20032;-68
2023/12/31 12:44:35;;;;;;;5.47;2.40;;;;;;;;;;5037769;28;20112;-68
2023/12/31 12:47:21;;;;;;;8.45;3.03;;;;;;;;;;5053298;28;20025;-66
2023/12/31 12:50:07;;;;;;;6.47;3.50;;;;;;;;;;5052680;28;20398;-67
2023/12/31 12:52:54;;;;;;;6.82;3.53;;;;;;;;;;5053176;28;20395;-67
2023/12/31 12:55:40;;;;;;;6.22;3.00;;;;;;;;;;5053148;28;20474;-67
2023/12/31 12:58:25;;;;;;;5.00;3.28;;;;;;;;;;5052748;28;20398;-67
2023/12/31 13:01:11;;;;;;;7.97;3.13;;;;;;;;;;5052847;28;20098;-67
2023/12/31 13:03:57;;;;;;;9.35;3.85;;;;;;;;;;5052481;28;20398;-67
2023/12/31 13:06:43;;;;;;;5.72;3.00;;;;;;;;;;5053067;28;20100;-67
2023/12/31 13:09:29;;;;;;;5.93;2.28;;;;;;;;;;5052377;28;20079;-67
2023/12/31 13:12:14;;;;;;;4.72;2.83;;;;;;;;;;5052117;28;20017;-67
2023/12/31 13:15:00;;;;;;;3.47;2.45;;;;;;;;;;5052917;28;20108;-67
2023/12/31 13:17:45;;;;;;;7.47;3.05;;;;;;;;;;5052373;28;20017;-67
2023/12/31 13:20:31;;;;;;;6.43;2.60;;;;;;;;;;5052572;28;20029;-67
2023/12/31 13:23:17;;;;;;;5.95;2.35;;;;;;;;;;5053322;28;20025;-67
2023/12/31 13:26:03;;;;;;;7.22;3.28;;;;;;;;;;5052292;28;20553;-67
2023/12/31 13:28:50;;;;;;;6.10;3.03;;;;;;;;;;5052558;28;20104;-67
2023/12/31 13:31:36;;;;;;;5.45;2.65;;;;;;;;;;5051687;28;20103;-67
2023/12/31 13:34:22;;;;;;;3.42;2.53;;;;;;;;;;5052836;28;20021;-67
2023/12/31 13:37:07;;;;;;;4.45;2.75;;;;;;;;;;5052309;28;20078;-67
2023/12/31 13:39:53;;;;;;;5.47;2.58;;;;;;;;;;5052616;28;20028;-67
2023/12/31 13:42:39;;;;;;;5.05;3.65;;;;;;;;;;5037767;28;20401;-67
2023/12/31 13:45:25;;;;;;;7.93;2.47;;;;;;;;;;5037492;28;20029;-67
2023/12/31 13:48:11;;;;;;;6.95;3.03;;;;;;;;;;5051900;28;20025;-67
2023/12/31 13:50:56;;;;;;;7.32;3.00;;;;;;;;;;5052158;28;20421;-68
2023/12/31 13:53:42;;;;;;;10.57;2.97;;;;;;;;;;5075332;22;20044;-70
2023/12/31 13:56:28;;;;;;;3.92;2.92;;;;;;;;;;5053149;28;20478;-70
2023/12/31 13:59:13;;;;;;;5.32;3.05;;;;;;;;;;5051212;28;20025;-71
2023/12/31 14:01:59;;;;;;;7.20;3.17;;;;;;;;;;5052986;28;20082;-70
2023/12/31 14:04:45;;;;;;;6.90;3.20;;;;;;;;;;5051817;28;20024;-72
2023/12/31 14:07:31;;;;;;;6.10;2.70;;;;;;;;;;5052189;28;20033;-70
2023/12/31 14:10:16;;;;;;;3.92;2.90;;;;;;;;;;5052449;28;20033;-70
2023/12/31 14:13:02;;;;;;;7.03;2.70;;;;;;;;;;5052785;28;20020;-71
2023/12/31 14:15:48;;;;;;;8.05;3.10;;;;;;;;;;5038320;28;20025;-71
2023/12/31 14:18:33;;;;;;;8.77;3.05;;;;;;;;;;5052469;28;20074;-70
2023/12/31 14:21:19;;;;;;;8.07;3.13;;;;;;;;;;5052391;28;20029;-70
2023/12/31 14:24:05;;;;;;;5.68;3.00;;;;;;;;;;5052883;28;20021;-71
2023/12/31 14:26:51;;;;;;;5.00;3.22;;;;;;;;;;5052471;28;20512;-71
2023/12/31 14:29:36;;;;;;;5.85;2.88;;;;;;;;;;5038478;28;20029;-71
2023/12/31 14:32:22;;;;;;;3.90;3.10;;;;;;;;;;5052730;28;20024;-71
2023/12/31 14:35:10;;;;;;;5.95;2.80;;;;;;;;;;5051828;28;20557;-72
2023/12/31 14:37:56;;;;;;;6.53;3.63;;;;;;;;;;5052525;28;20100;-71
2023/12/31 14:40:42;;;;;;;10.57;3.30;;;;;;;;;;5053120;28;20032;-72
2023/12/31 14:43:28;;;;;;;7.13;3.17;;;;;;;;;;5037512;28;20025;-72
2023/12/31 14:46:14;;;;;;;6.88;3.25;;;;;;;;;;5052725;28;20107;-71
2023/12/31 14:49:02;;;;;;;6.25;3.38;;;;;;;;;;5052526;28;20029;-71
2023/12/31 14:51:48;;;;;;;6.68;3.30;;;;;;;;;;5052532;28;20478;-71
2023/12/31 14:54:34;;;;;;;5.20;3.03;;;;;;;;;;5052389;28;20519;-70
2023/12/31 14:57:19;;;;;;;9.20;3.28;;;;;;;;;;5051965;28;20491;-68
2023/12/31 15:00:06;;;;;;;4.45;2.67;;;;;;;;;;5056189;28;20025;-68
2023/12/31 15:02:51;;;;;;;4.93;3.33;;;;;;;;;;5056156;28;20545;-67
2023/12/31 15:05:37;;;;;;;5.90;3.33;;;;;;;;;;5057774;28;20067;-68
2023/12/31 15:08:23;;;;;;;7.00;3.83;;;;;;;;;;5055897;28;20037;-67
2023/12/31 15:11:08;;;;;;;5.95;2.92;;;;;;;;;;5056418;28;20032;-68
2023/12/31 15:13:54;;;;;;;4.47;2.92;;;;;;;;;;5056602;28;20021;-70
2023/12/31 15:16:39;;;;;;;8.00;3.42;;;;;;;;;;5056330;28;20067;-69
2023/12/31 15:19:25;;;;;;;7.20;3.42;;;;;;;;;;5056495;28;20428;-69
2023/12/31 15:22:11;;;;;;;7.28;3.33;;;;;;;;;;5056251;28;20104;-69
2023/12/31 15:24:56;;;;;;;4.32;2.80;;;;;;;;;;5055801;28;20479;-69
2023/12/31 15:27:42;;;;;;;6.43;3.10;;;;;;;;;;5056167;28;20037;-69
2023/12/31 15:30:28;;;;;;;9.07;3.20;;;;;;;;;;5055561;28;20021;-68
2023/12/31 15:33:13;;;;;;;9.95;3.78;;;;;;;;;;5055706;28;20025;-69
2023/12/31 15:35:59;;;;;;;6.35;3.60;;;;;;;;;;5055277;28;20482;-69
2023/12/31 15:38:45;;;;;;;6.75;4.25;;;;;;;;;;5055750;28;20367;-69
2023/12/31 15:41:31;;;;;;;6.07;3.25;;;;;;;;;;5040377;28;20545;-68
2023/12/31 15:44:17;;;;;;;6.28;3.67;;;;;;;;;;5055587;28;20037;-68
2023/12/31 15:47:03;;;;;;;7.82;4.70;;;;;;;;;;5041210;28;20025;-69
2023/12/31 15:49:48;;;;;;;9.27;5.07;;;;;;;;;;5037829;28;20117;-69
2023/12/31 15:52:34;;;;;;;7.20;4.45;;;;;;;;;;5039753;28;20023;-69
2023/12/31 15:55:20;;;;;;;6.35;4.60;;;;;;;;;;5055236;28;20033;-70
2023/12/31 15:58:06;;;;;;;6.90;4.75;;;;;;;;;;5055140;28;20395;-69
2023/12/31 16:00:51;;;;;;;5.95;3.40;;;;;;;;;;5053640;28;20025;-69
2023/12/31 16:03:37;;;;;;;5.60;3.58;;;;;;;;;;5054610;28;20087;-69
2023/12/31 16:06:23;;;;;;;6.45;4.03;;;;;;;;;;5055696;28;20060;-69
2023/12/31 16:09:11;;;;;;;9.63;3.60;;;;;;;;;;5054272;28;20025;-69
2023/12/31 16:11:57;;;;;;;7.45;4.40;;;;;;;;;;5047264;28;20025;-71
2023/12/31 16:14:42;;;;;;;9.20;4.28;;;;;;;;;;5054439;28;20139;-71
2023/12/31 16:17:34;;;;;;;8.65;4.05;;;;;;;;;;5111042;27;20666;-70
2023/12/31 16:20:20;;;;;;;8.55;4.53;;;;;;;;;;5109162;28;20147;-71
2023/12/31 16:23:05;;;;;;;8.35;4.72;;;;;;;;;;5088939;28;20556;-71
2023/12/31 16:25:51;;;;;;;6.80;4.88;;;;;;;;;;5088041;28;20027;-72
2023/12/31 16:28:37;;;;;;;8.60;5.50;;;;;;;;;;5088448;28;20107;-71
2023/12/31 16:31:22;;;;;;;8.07;5.30;;;;;;;;;;5088072;28;20024;-71